Windsor, Canada
Current Conditions -  °F | °C
As of 7:00 AM on Friday 21 Nov 2014 (Local Time) from CYQG Reporting Station
Few Clouds Few Clouds  
Wind Chill:   Ceiling: Unl
Heat Index: 12°   Visibility: 15mi
Dew Point:   Wind: 9mph
Humidity: 79%   Direction: 270°W
Pressure: 30.38"   Gusts: NA
Location:  42.26°N, 82.96°W
Report Text: CYQG 211200Z 27008KT 15SM FEW060 M11/M14 A3038 RMK SC1 SLP300
Loading
Personal Weather Stations






























Interactive Weather Map New forecast layout! Learn more

10-Day Weather Forecast

Advertisements
Track Severe Weather on mobile